sensor_id;sensor_type;location;lat;lon;timestamp;temperature;humidity
40960;DHT22;27842;52.272;8.052;2023-04-25T00:00:38;8.60;96.30
40960;DHT22;27842;52.272;8.052;2023-04-25T00:03:03;8.60;96.30
40960;DHT22;27842;52.272;8.052;2023-04-25T00:05:30;8.60;96.40
40960;DHT22;27842;52.272;8.052;2023-04-25T00:07:57;8.60;96.90
40960;DHT22;27842;52.272;8.052;2023-04-25T00:10:23;8.60;96.80
40960;DHT22;27842;52.272;8.052;2023-04-25T00:12:48;8.50;97.10
40960;DHT22;27842;52.272;8.052;2023-04-25T00:15:14;8.50;96.90
40960;DHT22;27842;52.272;8.052;2023-04-25T00:17:40;8.50;97.30
40960;DHT22;27842;52.272;8.052;2023-04-25T00:20:06;8.50;97.30
40960;DHT22;27842;52.272;8.052;2023-04-25T00:22:35;8.50;97.10
40960;DHT22;27842;52.272;8.052;2023-04-25T00:25:03;8.50;97.30
40960;DHT22;27842;52.272;8.052;2023-04-25T00:27:29;8.50;97.20
40960;DHT22;27842;52.272;8.052;2023-04-25T00:29:54;8.40;97.30
40960;DHT22;27842;52.272;8.052;2023-04-25T00:32:20;8.50;97.40
40960;DHT22;27842;52.272;8.052;2023-04-25T00:34:46;8.40;97.70
40960;DHT22;27842;52.272;8.052;2023-04-25T00:37:11;8.40;97.50
40960;DHT22;27842;52.272;8.052;2023-04-25T00:39:37;8.40;97.50
40960;DHT22;27842;52.272;8.052;2023-04-25T00:42:03;8.40;97.60
40960;DHT22;27842;52.272;8.052;2023-04-25T00:44:30;8.50;97.70
40960;DHT22;27842;52.272;8.052;2023-04-25T00:46:57;8.40;97.70
40960;DHT22;27842;52.272;8.052;2023-04-25T00:49:23;8.40;97.90
40960;DHT22;27842;52.272;8.052;2023-04-25T00:51:48;8.40;97.90
40960;DHT22;27842;52.272;8.052;2023-04-25T00:54:15;8.40;98.00
40960;DHT22;27842;52.272;8.052;2023-04-25T00:56:41;8.40;98.00
40960;DHT22;27842;52.272;8.052;2023-04-25T00:59:09;8.40;98.10
40960;DHT22;27842;52.272;8.052;2023-04-25T01:01:35;8.40;98.20
40960;DHT22;27842;52.272;8.052;2023-04-25T01:04:01;8.40;98.30
40960;DHT22;27842;52.272;8.052;2023-04-25T01:06:27;8.40;98.20
40960;DHT22;27842;52.272;8.052;2023-04-25T01:08:53;8.40;98.20
40960;DHT22;27842;52.272;8.052;2023-04-25T01:11:19;8.40;98.20
40960;DHT22;27842;52.272;8.052;2023-04-25T01:13:45;8.40;98.30
40960;DHT22;27842;52.272;8.052;2023-04-25T01:16:10;8.40;98.20
40960;DHT22;27842;52.272;8.052;2023-04-25T01:18:38;8.30;98.30
40960;DHT22;27842;52.272;8.052;2023-04-25T01:21:11;8.40;98.30
40960;DHT22;27842;52.272;8.052;2023-04-25T01:23:39;8.30;98.30
40960;DHT22;27842;52.272;8.052;2023-04-25T01:26:06;8.40;98.30
40960;DHT22;27842;52.272;8.052;2023-04-25T01:28:33;8.40;98.30
40960;DHT22;27842;52.272;8.052;2023-04-25T01:30:59;8.40;98.20
40960;DHT22;27842;52.272;8.052;2023-04-25T01:33:25;8.40;98.20
40960;DHT22;27842;52.272;8.052;2023-04-25T01:35:51;8.50;98.30
40960;DHT22;27842;52.272;8.052;2023-04-25T01:38:16;8.50;98.20
40960;DHT22;27842;52.272;8.052;2023-04-25T01:40:44;8.50;98.20
40960;DHT22;27842;52.272;8.052;2023-04-25T01:43:10;8.50;98.30
40960;DHT22;27842;52.272;8.052;2023-04-25T01:45:38;8.50;98.40
40960;DHT22;27842;52.272;8.052;2023-04-25T01:48:11;8.50;98.20
40960;DHT22;27842;52.272;8.052;2023-04-25T01:50:38;8.50;98.30
40960;DHT22;27842;52.272;8.052;2023-04-25T01:53:04;8.50;98.30
40960;DHT22;27842;52.272;8.052;2023-04-25T01:55:30;8.50;98.20
40960;DHT22;27842;52.272;8.052;2023-04-25T01:57:57;8.50;98.30
40960;DHT22;27842;52.272;8.052;2023-04-25T02:00:23;8.40;98.40
40960;DHT22;27842;52.272;8.052;2023-04-25T02:02:49;8.40;98.40
40960;DHT22;27842;52.272;8.052;2023-04-25T02:05:16;8.40;98.70
40960;DHT22;27842;52.272;8.052;2023-04-25T02:07:42;8.40;98.40
40960;DHT22;27842;52.272;8.052;2023-04-25T02:10:08;8.40;98.40
40960;DHT22;27842;52.272;8.052;2023-04-25T02:12:34;8.30;98.40
40960;DHT22;27842;52.272;8.052;2023-04-25T02:15:00;8.30;98.50
40960;DHT22;27842;52.272;8.052;2023-04-25T02:17:26;8.30;98.50
40960;DHT22;27842;52.272;8.052;2023-04-25T02:19:51;8.30;98.50
40960;DHT22;27842;52.272;8.052;2023-04-25T02:22:17;8.30;98.50
40960;DHT22;27842;52.272;8.052;2023-04-25T02:24:42;8.30;98.50
40960;DHT22;27842;52.272;8.052;2023-04-25T02:27:08;8.30;98.50
40960;DHT22;27842;52.272;8.052;2023-04-25T02:29:33;8.30;98.50
40960;DHT22;27842;52.272;8.052;2023-04-25T02:31:59;8.30;98.50
40960;DHT22;27842;52.272;8.052;2023-04-25T02:34:25;8.30;98.60
40960;DHT22;27842;52.272;8.052;2023-04-25T02:36:50;8.30;98.50
40960;DHT22;27842;52.272;8.052;2023-04-25T02:39:16;8.30;98.50
40960;DHT22;27842;52.272;8.052;2023-04-25T02:41:42;8.20;98.50
40960;DHT22;27842;52.272;8.052;2023-04-25T02:44:07;8.20;98.50
40960;DHT22;27842;52.272;8.052;2023-04-25T02:46:33;8.20;98.60
40960;DHT22;27842;52.272;8.052;2023-04-25T02:48:59;8.20;98.60
40960;DHT22;27842;52.272;8.052;2023-04-25T02:51:24;8.10;98.60
40960;DHT22;27842;52.272;8.052;2023-04-25T02:53:50;8.10;98.70
40960;DHT22;27842;52.272;8.052;2023-04-25T02:56:15;8.10;98.90
40960;DHT22;27842;52.272;8.052;2023-04-25T02:58:41;8.10;98.70
40960;DHT22;27842;52.272;8.052;2023-04-25T03:01:06;8.10;98.70
40960;DHT22;27842;52.272;8.052;2023-04-25T03:03:32;8.00;98.70
40960;DHT22;27842;52.272;8.052;2023-04-25T03:05:57;8.00;98.60
40960;DHT22;27842;52.272;8.052;2023-04-25T03:08:23;8.00;98.60
40960;DHT22;27842;52.272;8.052;2023-04-25T03:10:50;8.10;98.70
40960;DHT22;27842;52.272;8.052;2023-04-25T03:13:17;8.00;98.60
40960;DHT22;27842;52.272;8.052;2023-04-25T03:15:43;8.00;98.50
40960;DHT22;27842;52.272;8.052;2023-04-25T03:18:09;8.00;98.60
40960;DHT22;27842;52.272;8.052;2023-04-25T03:20:34;8.00;98.60
40960;DHT22;27842;52.272;8.052;2023-04-25T03:23:00;8.00;98.60
40960;DHT22;27842;52.272;8.052;2023-04-25T03:25:25;7.90;98.60
40960;DHT22;27842;52.272;8.052;2023-04-25T03:27:51;7.90;98.50
40960;DHT22;27842;52.272;8.052;2023-04-25T03:30:17;7.90;98.60
40960;DHT22;27842;52.272;8.052;2023-04-25T03:32:42;7.90;98.80
40960;DHT22;27842;52.272;8.052;2023-04-25T03:35:08;7.90;98.50
40960;DHT22;27842;52.272;8.052;2023-04-25T03:37:34;7.90;98.50
40960;DHT22;27842;52.272;8.052;2023-04-25T03:39:59;7.90;98.50
40960;DHT22;27842;52.272;8.052;2023-04-25T03:42:25;7.90;98.50
40960;DHT22;27842;52.272;8.052;2023-04-25T03:44:51;7.90;98.50
40960;DHT22;27842;52.272;8.052;2023-04-25T03:47:17;7.90;98.50
40960;DHT22;27842;52.272;8.052;2023-04-25T03:49:42;8.00;98.50
40960;DHT22;27842;52.272;8.052;2023-04-25T03:52:08;7.90;98.50
40960;DHT22;27842;52.272;8.052;2023-04-25T03:54:33;7.90;98.50
40960;DHT22;27842;52.272;8.052;2023-04-25T03:56:59;7.90;98.50
40960;DHT22;27842;52.272;8.052;2023-04-25T03:59:25;7.90;98.50
40960;DHT22;27842;52.272;8.052;2023-04-25T04:01:51;7.90;98.50
40960;DHT22;27842;52.272;8.052;2023-04-25T04:04:17;7.90;98.60
40960;DHT22;27842;52.272;8.052;2023-04-25T04:06:43;7.80;98.70
40960;DHT22;27842;52.272;8.052;2023-04-25T04:09:09;7.80;98.80
40960;DHT22;27842;52.272;8.052;2023-04-25T04:11:37;7.80;98.80
40960;DHT22;27842;52.272;8.052;2023-04-25T04:14:07;7.80;98.80
40960;DHT22;27842;52.272;8.052;2023-04-25T04:16:32;7.80;98.80
40960;DHT22;27842;52.272;8.052;2023-04-25T04:18:58;7.70;98.80
40960;DHT22;27842;52.272;8.052;2023-04-25T04:21:23;7.70;98.80
40960;DHT22;27842;52.272;8.052;2023-04-25T04:23:49;7.70;98.80
40960;DHT22;27842;52.272;8.052;2023-04-25T04:26:15;7.70;98.90
40960;DHT22;27842;52.272;8.052;2023-04-25T04:28:43;7.70;98.80
40960;DHT22;27842;52.272;8.052;2023-04-25T04:31:11;7.70;98.80
40960;DHT22;27842;52.272;8.052;2023-04-25T04:33:38;7.70;98.90
40960;DHT22;27842;52.272;8.052;2023-04-25T04:36:03;7.70;98.90
40960;DHT22;27842;52.272;8.052;2023-04-25T04:38:29;7.60;98.90
40960;DHT22;27842;52.272;8.052;2023-04-25T04:40:56;7.60;99.00
40960;DHT22;27842;52.272;8.052;2023-04-25T04:43:21;7.60;99.00
40960;DHT22;27842;52.272;8.052;2023-04-25T04:45:48;7.60;99.00
40960;DHT22;27842;52.272;8.052;2023-04-25T04:48:15;7.60;99.00
40960;DHT22;27842;52.272;8.052;2023-04-25T04:50:43;7.60;98.90
40960;DHT22;27842;52.272;8.052;2023-04-25T04:53:10;7.60;99.00
40960;DHT22;27842;52.272;8.052;2023-04-25T04:55:36;7.60;99.00
40960;DHT22;27842;52.272;8.052;2023-04-25T04:58:02;7.60;99.00
40960;DHT22;27842;52.272;8.052;2023-04-25T05:00:27;7.60;99.00
40960;DHT22;27842;52.272;8.052;2023-04-25T05:02:55;7.60;98.90
40960;DHT22;27842;52.272;8.052;2023-04-25T05:05:20;7.60;98.90
40960;DHT22;27842;52.272;8.052;2023-04-25T05:07:46;7.60;98.90
40960;DHT22;27842;52.272;8.052;2023-04-25T05:10:12;7.60;98.90
40960;DHT22;27842;52.272;8.052;2023-04-25T05:12:38;7.60;98.90
40960;DHT22;27842;52.272;8.052;2023-04-25T05:15:04;7.60;98.90
40960;DHT22;27842;52.272;8.052;2023-04-25T05:17:30;7.60;98.80
40960;DHT22;27842;52.272;8.052;2023-04-25T05:19:56;7.60;98.90
40960;DHT22;27842;52.272;8.052;2023-04-25T05:22:22;7.60;98.80
40960;DHT22;27842;52.272;8.052;2023-04-25T05:24:48;7.60;98.70
40960;DHT22;27842;52.272;8.052;2023-04-25T05:27:16;7.60;98.70
40960;DHT22;27842;52.272;8.052;2023-04-25T05:29:42;7.60;98.70
40960;DHT22;27842;52.272;8.052;2023-04-25T05:32:08;7.60;98.60
40960;DHT22;27842;52.272;8.052;2023-04-25T05:34:34;7.60;98.70
40960;DHT22;27842;52.272;8.052;2023-04-25T05:37:00;7.60;98.60
40960;DHT22;27842;52.272;8.052;2023-04-25T05:39:26;7.60;98.60
40960;DHT22;27842;52.272;8.052;2023-04-25T05:41:52;7.60;98.60
40960;DHT22;27842;52.272;8.052;2023-04-25T05:44:18;7.60;98.60
40960;DHT22;27842;52.272;8.052;2023-04-25T05:46:43;7.60;98.60
40960;DHT22;27842;52.272;8.052;2023-04-25T05:49:09;7.60;98.60
40960;DHT22;27842;52.272;8.052;2023-04-25T05:51:34;7.60;98.60
40960;DHT22;27842;52.272;8.052;2023-04-25T05:54:00;7.60;98.50
40960;DHT22;27842;52.272;8.052;2023-04-25T05:56:26;7.60;98.50
40960;DHT22;27842;52.272;8.052;2023-04-25T05:58:51;7.60;98.50
40960;DHT22;27842;52.272;8.052;2023-04-25T06:01:17;7.60;98.60
40960;DHT22;27842;52.272;8.052;2023-04-25T06:03:42;7.60;98.50
40960;DHT22;27842;52.272;8.052;2023-04-25T06:06:09;7.70;98.40
40960;DHT22;27842;52.272;8.052;2023-04-25T06:08:35;7.60;98.30
40960;DHT22;27842;52.272;8.052;2023-04-25T06:11:00;7.70;98.40
40960;DHT22;27842;52.272;8.052;2023-04-25T06:13:26;7.70;98.30
40960;DHT22;27842;52.272;8.052;2023-04-25T06:15:55;7.70;98.30
40960;DHT22;27842;52.272;8.052;2023-04-25T06:18:21;7.70;98.30
40960;DHT22;27842;52.272;8.052;2023-04-25T06:20:47;7.70;98.40
40960;DHT22;27842;52.272;8.052;2023-04-25T06:23:12;7.70;98.20
40960;DHT22;27842;52.272;8.052;2023-04-25T06:25:38;7.80;98.20
40960;DHT22;27842;52.272;8.052;2023-04-25T06:28:03;7.80;98.10
40960;DHT22;27842;52.272;8.052;2023-04-25T06:30:29;7.80;98.00
40960;DHT22;27842;52.272;8.052;2023-04-25T06:32:55;7.80;98.00
40960;DHT22;27842;52.272;8.052;2023-04-25T06:35:21;7.80;98.00
40960;DHT22;27842;52.272;8.052;2023-04-25T06:37:46;7.80;97.90
40960;DHT22;27842;52.272;8.052;2023-04-25T06:40:12;7.80;97.90
40960;DHT22;27842;52.272;8.052;2023-04-25T06:42:38;7.80;97.90
40960;DHT22;27842;52.272;8.052;2023-04-25T06:45:04;7.80;97.80
40960;DHT22;27842;52.272;8.052;2023-04-25T06:47:29;7.90;97.70
40960;DHT22;27842;52.272;8.052;2023-04-25T06:49:55;7.90;97.70
40960;DHT22;27842;52.272;8.052;2023-04-25T06:52:21;7.90;97.70
40960;DHT22;27842;52.272;8.052;2023-04-25T06:54:46;7.90;97.70
40960;DHT22;27842;52.272;8.052;2023-04-25T06:57:13;7.90;97.60
40960;DHT22;27842;52.272;8.052;2023-04-25T06:59:38;7.90;97.60
40960;DHT22;27842;52.272;8.052;2023-04-25T07:02:04;7.90;97.50
40960;DHT22;27842;52.272;8.052;2023-04-25T07:04:29;7.90;97.50
40960;DHT22;27842;52.272;8.052;2023-04-25T07:06:56;8.00;97.50
40960;DHT22;27842;52.272;8.052;2023-04-25T07:09:22;8.00;97.50
40960;DHT22;27842;52.272;8.052;2023-04-25T07:11:47;8.10;97.30
40960;DHT22;27842;52.272;8.052;2023-04-25T07:14:13;8.10;97.30
40960;DHT22;27842;52.272;8.052;2023-04-25T07:16:39;8.30;97.20
40960;DHT22;27842;52.272;8.052;2023-04-25T07:19:05;8.50;97.00
40960;DHT22;27842;52.272;8.052;2023-04-25T07:21:30;8.70;96.60
40960;DHT22;27842;52.272;8.052;2023-04-25T07:23:57;8.80;96.30
40960;DHT22;27842;52.272;8.052;2023-04-25T07:26:22;8.80;96.40
40960;DHT22;27842;52.272;8.052;2023-04-25T07:28:48;8.90;95.90
40960;DHT22;27842;52.272;8.052;2023-04-25T07:31:19;8.80;95.70
40960;DHT22;27842;52.272;8.052;2023-04-25T07:33:44;8.80;95.80
40960;DHT22;27842;52.272;8.052;2023-04-25T07:36:11;8.80;95.70
40960;DHT22;27842;52.272;8.052;2023-04-25T07:38:38;8.90;95.70
40960;DHT22;27842;52.272;8.052;2023-04-25T07:41:03;8.90;95.60
40960;DHT22;27842;52.272;8.052;2023-04-25T07:43:29;8.90;95.50
40960;DHT22;27842;52.272;8.052;2023-04-25T07:45:56;8.90;95.30
40960;DHT22;27842;52.272;8.052;2023-04-25T07:48:22;8.90;95.10
40960;DHT22;27842;52.272;8.052;2023-04-25T07:50:48;8.80;95.10
40960;DHT22;27842;52.272;8.052;2023-04-25T07:53:14;8.90;95.10
40960;DHT22;27842;52.272;8.052;2023-04-25T07:55:39;8.90;95.40
40960;DHT22;27842;52.272;8.052;2023-04-25T07:58:09;9.00;94.80
40960;DHT22;27842;52.272;8.052;2023-04-25T08:00:35;9.00;94.60
40960;DHT22;27842;52.272;8.052;2023-04-25T08:03:02;9.10;94.90
40960;DHT22;27842;52.272;8.052;2023-04-25T08:05:28;9.30;94.50
40960;DHT22;27842;52.272;8.052;2023-04-25T08:07:53;9.30;94.30
40960;DHT22;27842;52.272;8.052;2023-04-25T08:10:19;9.50;94.00
40960;DHT22;27842;52.272;8.052;2023-04-25T08:12:45;9.60;93.70
40960;DHT22;27842;52.272;8.052;2023-04-25T08:15:11;9.70;93.50
40960;DHT22;27842;52.272;8.052;2023-04-25T08:17:39;9.80;92.90
40960;DHT22;27842;52.272;8.052;2023-04-25T08:20:05;9.90;93.10
40960;DHT22;27842;52.272;8.052;2023-04-25T08:22:31;10.00;92.50
40960;DHT22;27842;52.272;8.052;2023-04-25T08:24:57;10.10;92.70
40960;DHT22;27842;52.272;8.052;2023-04-25T08:27:22;10.20;92.40
40960;DHT22;27842;52.272;8.052;2023-04-25T08:29:49;10.30;92.20
40960;DHT22;27842;52.272;8.052;2023-04-25T08:32:15;10.40;92.30
40960;DHT22;27842;52.272;8.052;2023-04-25T08:34:41;10.40;91.60
40960;DHT22;27842;52.272;8.052;2023-04-25T08:37:08;10.50;91.00
40960;DHT22;27842;52.272;8.052;2023-04-25T08:39:38;10.60;91.40
40960;DHT22;27842;52.272;8.052;2023-04-25T08:42:05;10.60;91.60
40960;DHT22;27842;52.272;8.052;2023-04-25T08:44:34;10.50;91.10
40960;DHT22;27842;52.272;8.052;2023-04-25T08:47:03;10.40;91.00
40960;DHT22;27842;52.272;8.052;2023-04-25T08:49:31;10.30;91.10
40960;DHT22;27842;52.272;8.052;2023-04-25T08:52:02;10.30;91.10
40960;DHT22;27842;52.272;8.052;2023-04-25T08:54:31;10.20;91.20
40960;DHT22;27842;52.272;8.052;2023-04-25T08:56:57;10.10;91.70
40960;DHT22;27842;52.272;8.052;2023-04-25T08:59:27;10.10;91.20
40960;DHT22;27842;52.272;8.052;2023-04-25T09:01:53;10.00;91.30
40960;DHT22;27842;52.272;8.052;2023-04-25T09:04:19;10.00;91.40
40960;DHT22;27842;52.272;8.052;2023-04-25T09:06:46;9.90;91.40
40960;DHT22;27842;52.272;8.052;2023-04-25T09:09:12;9.80;91.10
40960;DHT22;27842;52.272;8.052;2023-04-25T09:11:38;9.70;91.20
40960;DHT22;27842;52.272;8.052;2023-04-25T09:14:11;9.60;91.40
40960;DHT22;27842;52.272;8.052;2023-04-25T09:19:24;9.60;91.50
40960;DHT22;27842;52.272;8.052;2023-04-25T09:21:50;9.60;90.80
40960;DHT22;27842;52.272;8.052;2023-04-25T09:24:18;9.60;90.80
40960;DHT22;27842;52.272;8.052;2023-04-25T09:26:44;9.70;91.10
40960;DHT22;27842;52.272;8.052;2023-04-25T09:29:10;9.70;91.20
40960;DHT22;27842;52.272;8.052;2023-04-25T09:31:36;9.80;91.10
40960;DHT22;27842;52.272;8.052;2023-04-25T09:34:02;9.80;90.80
40960;DHT22;27842;52.272;8.052;2023-04-25T09:36:29;9.80;90.60
40960;DHT22;27842;52.272;8.052;2023-04-25T09:38:55;9.80;90.50
40960;DHT22;27842;52.272;8.052;2023-04-25T09:41:25;9.90;90.40
40960;DHT22;27842;52.272;8.052;2023-04-25T09:43:51;10.20;90.30
40960;DHT22;27842;52.272;8.052;2023-04-25T09:46:17;10.30;89.40
40960;DHT22;27842;52.272;8.052;2023-04-25T09:48:50;10.50;89.00
40960;DHT22;27842;52.272;8.052;2023-04-25T09:51:16;10.60;88.60
40960;DHT22;27842;52.272;8.052;2023-04-25T09:53:43;10.60;89.00
40960;DHT22;27842;52.272;8.052;2023-04-25T09:56:15;10.60;88.50
40960;DHT22;27842;52.272;8.052;2023-04-25T09:58:42;10.60;88.00
40960;DHT22;27842;52.272;8.052;2023-04-25T10:01:11;10.50;87.70
40960;DHT22;27842;52.272;8.052;2023-04-25T10:03:38;10.50;87.70
40960;DHT22;27842;52.272;8.052;2023-04-25T10:06:12;10.40;87.90
40960;DHT22;27842;52.272;8.052;2023-04-25T10:08:38;10.40;87.80
40960;DHT22;27842;52.272;8.052;2023-04-25T10:11:06;10.30;87.70
40960;DHT22;27842;52.272;8.052;2023-04-25T10:13:33;10.20;87.30
40960;DHT22;27842;52.272;8.052;2023-04-25T10:16:00;10.20;87.80
40960;DHT22;27842;52.272;8.052;2023-04-25T10:18:27;10.10;88.30
40960;DHT22;27842;52.272;8.052;2023-04-25T10:20:55;10.10;88.40
40960;DHT22;27842;52.272;8.052;2023-04-25T10:23:21;10.00;88.20
40960;DHT22;27842;52.272;8.052;2023-04-25T10:25:49;10.00;87.20
40960;DHT22;27842;52.272;8.052;2023-04-25T10:28:15;10.10;88.00
40960;DHT22;27842;52.272;8.052;2023-04-25T10:31:00;10.30;88.20
40960;DHT22;27842;52.272;8.052;2023-04-25T10:33:36;10.40;87.90
40960;DHT22;27842;52.272;8.052;2023-04-25T10:36:13;10.40;87.60
40960;DHT22;27842;52.272;8.052;2023-04-25T10:38:39;10.40;87.50
40960;DHT22;27842;52.272;8.052;2023-04-25T10:41:06;10.30;87.80
40960;DHT22;27842;52.272;8.052;2023-04-25T10:46:02;10.20;87.90
40960;DHT22;27842;52.272;8.052;2023-04-25T10:48:29;10.20;87.70
40960;DHT22;27842;52.272;8.052;2023-04-25T10:51:08;10.20;88.40
40960;DHT22;27842;52.272;8.052;2023-04-25T10:53:35;10.10;87.20
40960;DHT22;27842;52.272;8.052;2023-04-25T10:56:08;9.90;88.50
40960;DHT22;27842;52.272;8.052;2023-04-25T10:58:34;9.80;89.10
40960;DHT22;27842;52.272;8.052;2023-04-25T11:01:01;9.70;89.60
40960;DHT22;27842;52.272;8.052;2023-04-25T11:03:27;9.60;90.00
40960;DHT22;27842;52.272;8.052;2023-04-25T11:05:52;9.60;90.10
40960;DHT22;27842;52.272;8.052;2023-04-25T11:08:37;9.60;90.30
40960;DHT22;27842;52.272;8.052;2023-04-25T11:11:08;9.50;90.30
40960;DHT22;27842;52.272;8.052;2023-04-25T11:13:34;9.60;90.30
40960;DHT22;27842;52.272;8.052;2023-04-25T11:16:00;9.70;90.50
40960;DHT22;27842;52.272;8.052;2023-04-25T11:18:26;9.70;90.50
40960;DHT22;27842;52.272;8.052;2023-04-25T11:20:52;9.90;90.50
40960;DHT22;27842;52.272;8.052;2023-04-25T11:23:18;10.00;90.40
40960;DHT22;27842;52.272;8.052;2023-04-25T11:25:44;10.00;90.20
40960;DHT22;27842;52.272;8.052;2023-04-25T11:28:20;10.10;90.30
40960;DHT22;27842;52.272;8.052;2023-04-25T11:30:48;10.10;90.30
40960;DHT22;27842;52.272;8.052;2023-04-25T11:33:16;10.10;90.30
40960;DHT22;27842;52.272;8.052;2023-04-25T11:35:41;10.20;90.20
40960;DHT22;27842;52.272;8.052;2023-04-25T11:38:07;10.20;90.10
40960;DHT22;27842;52.272;8.052;2023-04-25T11:40:33;10.20;90.10
40960;DHT22;27842;52.272;8.052;2023-04-25T11:43:00;10.20;90.10
40960;DHT22;27842;52.272;8.052;2023-04-25T11:45:26;10.20;90.00
40960;DHT22;27842;52.272;8.052;2023-04-25T11:47:52;10.30;90.20
40960;DHT22;27842;52.272;8.052;2023-04-25T11:50:18;10.50;90.10
40960;DHT22;27842;52.272;8.052;2023-04-25T11:52:47;10.70;89.70
40960;DHT22;27842;52.272;8.052;2023-04-25T11:57:48;11.00;88.60
40960;DHT22;27842;52.272;8.052;2023-04-25T12:00:19;11.00;88.30
40960;DHT22;27842;52.272;8.052;2023-04-25T12:02:47;11.00;88.20
40960;DHT22;27842;52.272;8.052;2023-04-25T12:05:14;10.90;86.60
40960;DHT22;27842;52.272;8.052;2023-04-25T12:07:43;10.80;87.90
40960;DHT22;27842;52.272;8.052;2023-04-25T12:10:11;10.70;87.70
40960;DHT22;27842;52.272;8.052;2023-04-25T12:12:41;10.70;87.20
40960;DHT22;27842;52.272;8.052;2023-04-25T12:15:15;10.60;87.10
40960;DHT22;27842;52.272;8.052;2023-04-25T12:17:42;10.50;86.00
40960;DHT22;27842;52.272;8.052;2023-04-25T12:20:15;10.40;86.10
40960;DHT22;27842;52.272;8.052;2023-04-25T12:22:42;10.40;86.40
40960;DHT22;27842;52.272;8.052;2023-04-25T12:28:13;10.20;87.10
40960;DHT22;27842;52.272;8.052;2023-04-25T12:33:27;10.10;88.10
40960;DHT22;27842;52.272;8.052;2023-04-25T12:35:53;10.00;88.60
40960;DHT22;27842;52.272;8.052;2023-04-25T12:38:24;9.90;89.00
40960;DHT22;27842;52.272;8.052;2023-04-25T12:40:49;9.80;89.40
40960;DHT22;27842;52.272;8.052;2023-04-25T12:43:15;9.80;89.90
40960;DHT22;27842;52.272;8.052;2023-04-25T12:45:41;9.80;90.00
40960;DHT22;27842;52.272;8.052;2023-04-25T12:48:07;9.80;89.80
40960;DHT22;27842;52.272;8.052;2023-04-25T12:50:32;9.90;89.60
40960;DHT22;27842;52.272;8.052;2023-04-25T12:52:58;9.90;88.90
40960;DHT22;27842;52.272;8.052;2023-04-25T12:55:24;10.20;89.20
40960;DHT22;27842;52.272;8.052;2023-04-25T12:57:50;10.50;88.90
40960;DHT22;27842;52.272;8.052;2023-04-25T13:00:16;10.70;87.40
40960;DHT22;27842;52.272;8.052;2023-04-25T13:02:43;11.00;87.10
40960;DHT22;27842;52.272;8.052;2023-04-25T13:05:09;11.20;86.00
40960;DHT22;27842;52.272;8.052;2023-04-25T13:07:34;11.40;85.90
40960;DHT22;27842;52.272;8.052;2023-04-25T13:10:00;11.40;85.00
40960;DHT22;27842;52.272;8.052;2023-04-25T13:12:27;11.50;85.50
40960;DHT22;27842;52.272;8.052;2023-04-25T13:14:53;11.50;85.40
40960;DHT22;27842;52.272;8.052;2023-04-25T13:17:19;11.60;85.20
40960;DHT22;27842;52.272;8.052;2023-04-25T13:19:44;11.60;84.70
40960;DHT22;27842;52.272;8.052;2023-04-25T13:22:10;11.50;84.50
40960;DHT22;27842;52.272;8.052;2023-04-25T13:24:36;11.50;84.50
40960;DHT22;27842;52.272;8.052;2023-04-25T13:27:02;11.60;84.50
40960;DHT22;27842;52.272;8.052;2023-04-25T13:29:27;11.60;84.50
40960;DHT22;27842;52.272;8.052;2023-04-25T13:31:53;11.60;84.30
40960;DHT22;27842;52.272;8.052;2023-04-25T13:34:18;11.70;84.00
40960;DHT22;27842;52.272;8.052;2023-04-25T13:36:44;11.80;83.30
40960;DHT22;27842;52.272;8.052;2023-04-25T13:39:10;11.90;82.90
40960;DHT22;27842;52.272;8.052;2023-04-25T13:41:36;11.90;82.80
40960;DHT22;27842;52.272;8.052;2023-04-25T13:44:02;11.90;81.00
40960;DHT22;27842;52.272;8.052;2023-04-25T13:46:28;12.00;82.30
40960;DHT22;27842;52.272;8.052;2023-04-25T13:48:53;12.20;81.70
40960;DHT22;27842;52.272;8.052;2023-04-25T13:51:19;12.40;82.00
40960;DHT22;27842;52.272;8.052;2023-04-25T13:53:44;12.60;81.30
40960;DHT22;27842;52.272;8.052;2023-04-25T13:56:10;12.80;80.90
40960;DHT22;27842;52.272;8.052;2023-04-25T13:58:37;12.90;80.90
40960;DHT22;27842;52.272;8.052;2023-04-25T14:01:02;13.10;81.00
40960;DHT22;27842;52.272;8.052;2023-04-25T14:03:29;13.10;80.10
40960;DHT22;27842;52.272;8.052;2023-04-25T14:05:55;13.10;80.00
40960;DHT22;27842;52.272;8.052;2023-04-25T14:08:21;12.90;78.00
40960;DHT22;27842;52.272;8.052;2023-04-25T14:10:46;12.70;80.40
40960;DHT22;27842;52.272;8.052;2023-04-25T14:13:12;12.50;80.50
40960;DHT22;27842;52.272;8.052;2023-04-25T14:15:37;12.30;80.90
40960;DHT22;27842;52.272;8.052;2023-04-25T14:18:03;12.00;82.10
40960;DHT22;27842;52.272;8.052;2023-04-25T14:20:29;11.60;83.30
40960;DHT22;27842;52.272;8.052;2023-04-25T14:22:55;11.30;84.70
40960;DHT22;27842;52.272;8.052;2023-04-25T14:25:25;11.00;85.80
40960;DHT22;27842;52.272;8.052;2023-04-25T14:27:57;10.70;87.00
40960;DHT22;27842;52.272;8.052;2023-04-25T14:30:23;10.40;88.10
40960;DHT22;27842;52.272;8.052;2023-04-25T14:32:49;10.20;88.80
40960;DHT22;27842;52.272;8.052;2023-04-25T14:35:15;10.00;89.50
40960;DHT22;27842;52.272;8.052;2023-04-25T14:37:42;9.90;90.20
40960;DHT22;27842;52.272;8.052;2023-04-25T14:40:08;9.90;90.10
40960;DHT22;27842;52.272;8.052;2023-04-25T14:42:38;10.00;90.20
40960;DHT22;27842;52.272;8.052;2023-04-25T14:45:05;10.00;90.30
40960;DHT22;27842;52.272;8.052;2023-04-25T14:47:32;10.10;90.30
40960;DHT22;27842;52.272;8.052;2023-04-25T14:49:58;10.20;90.30
40960;DHT22;27842;52.272;8.052;2023-04-25T14:52:24;10.40;90.40
40960;DHT22;27842;52.272;8.052;2023-04-25T14:54:50;10.50;90.30
40960;DHT22;27842;52.272;8.052;2023-04-25T14:57:16;10.70;90.20
40960;DHT22;27842;52.272;8.052;2023-04-25T14:59:42;10.90;90.10
40960;DHT22;27842;52.272;8.052;2023-04-25T15:02:08;11.00;90.30
40960;DHT22;27842;52.272;8.052;2023-04-25T15:04:33;11.20;89.90
40960;DHT22;27842;52.272;8.052;2023-04-25T15:06:59;11.30;90.00
40960;DHT22;27842;52.272;8.052;2023-04-25T15:09:25;11.40;89.70
40960;DHT22;27842;52.272;8.052;2023-04-25T15:11:51;11.50;89.60
40960;DHT22;27842;52.272;8.052;2023-04-25T15:14:19;11.50;89.40
40960;DHT22;27842;52.272;8.052;2023-04-25T15:16:45;11.40;89.50
40960;DHT22;27842;52.272;8.052;2023-04-25T15:19:11;11.50;89.50
40960;DHT22;27842;52.272;8.052;2023-04-25T15:21:36;11.40;89.20
40960;DHT22;27842;52.272;8.052;2023-04-25T15:24:02;11.10;89.50
40960;DHT22;27842;52.272;8.052;2023-04-25T15:26:28;10.90;89.90
40960;DHT22;27842;52.272;8.052;2023-04-25T15:28:53;10.70;90.10
40960;DHT22;27842;52.272;8.052;2023-04-25T15:31:19;10.50;90.40
40960;DHT22;27842;52.272;8.052;2023-04-25T15:33:45;10.30;90.50
40960;DHT22;27842;52.272;8.052;2023-04-25T15:36:11;10.20;90.60
40960;DHT22;27842;52.272;8.052;2023-04-25T15:38:37;10.10;90.70
40960;DHT22;27842;52.272;8.052;2023-04-25T15:41:02;10.10;90.80
40960;DHT22;27842;52.272;8.052;2023-04-25T15:43:28;10.10;90.80
40960;DHT22;27842;52.272;8.052;2023-04-25T15:45:54;10.00;90.80
40960;DHT22;27842;52.272;8.052;2023-04-25T15:48:20;10.00;90.80